Time;durP1;ratioP1;P1;durP2;ratioP2;P2;SDS_P1;SDS_P2;PMS_P1;PMS_P2;Temp;Humidity;BMP_temperature;BMP_pressure;BME280_temperature;BME280_humidity;BME280_pressure;Samples;Min_cycle;Max_cycle;Signal;HPM_P1;HPM_P2
2021/05/14 00:00:11;;;;;;;1.63;0.80;;;5.60;99.90;;;;;;5076935;28;20244;-75
2021/05/14 00:02:39;;;;;;;1.20;0.75;;;5.60;99.90;;;;;;5076875;28;20185;-73
2021/05/14 00:05:06;;;;;;;0.70;0.70;;;5.60;99.90;;;;;;5075306;28;20647;-75
2021/05/14 00:07:32;;;;;;;1.02;1.02;;;5.60;99.90;;;;;;5076850;28;20185;-72
2021/05/14 00:09:57;;;;;;;0.63;0.63;;;5.50;99.90;;;;;;5076535;28;20189;-74
2021/05/14 00:12:23;;;;;;;1.47;1.37;;;5.60;99.90;;;;;;5076444;28;20201;-73
2021/05/14 00:14:49;;;;;;;1.13;0.90;;;5.50;99.90;;;;;;5076439;28;20173;-70
2021/05/14 00:17:15;;;;;;;0.90;0.75;;;5.30;99.90;;;;;;5076282;28;20573;-71
2021/05/14 00:19:40;;;;;;;1.03;1.03;;;5.10;99.90;;;;;;5076441;28;20170;-72
2021/05/14 00:22:06;;;;;;;0.50;0.50;;;5.20;99.90;;;;;;5076392;28;20212;-72
2021/05/14 00:24:32;;;;;;;0.50;0.50;;;5.30;99.90;;;;;;5076449;28;20178;-75
2021/05/14 00:26:58;;;;;;;0.63;0.63;;;5.10;99.90;;;;;;5076119;28;20267;-75
2021/05/14 00:29:24;;;;;;;0.63;0.60;;;5.20;99.90;;;;;;5076398;28;20577;-71
2021/05/14 00:31:49;;;;;;;4.83;0.80;;;5.30;99.90;;;;;;5076060;28;20207;-75
2021/05/14 00:34:15;;;;;;;0.60;0.60;;;5.20;99.90;;;;;;5076190;28;20438;-74
2021/05/14 00:36:41;;;;;;;0.60;0.60;;;5.30;99.90;;;;;;5076154;28;20253;-71
2021/05/14 00:39:06;;;;;;;0.50;0.50;;;5.40;99.90;;;;;;5076218;28;20627;-73
2021/05/14 00:41:32;;;;;;;0.73;0.70;;;5.50;99.90;;;;;;5075931;28;20249;-74
2021/05/14 00:43:58;;;;;;;1.00;0.77;;;5.60;99.90;;;;;;5075911;28;20179;-71
2021/05/14 00:46:25;;;;;;;1.53;1.53;;;5.50;99.90;;;;;;5076047;28;20649;-74
2021/05/14 00:48:50;;;;;;;0.65;0.65;;;5.60;99.90;;;;;;5075944;28;20685;-73
2021/05/14 00:51:16;;;;;;;0.70;0.70;;;5.60;99.90;;;;;;5076006;28;20205;-73
2021/05/14 00:53:42;;;;;;;0.80;0.80;;;5.60;99.90;;;;;;5075599;28;20254;-75
2021/05/14 00:56:08;;;;;;;0.60;0.60;;;5.50;99.90;;;;;;5074807;28;20432;-75
2021/05/14 00:58:34;;;;;;;1.05;1.00;;;5.40;99.90;;;;;;5075819;28;20181;-70
2021/05/14 01:01:00;;;;;;;1.30;1.07;;;5.40;99.90;;;;;;5075686;28;20169;-74
2021/05/14 01:03:25;;;;;;;0.90;0.87;;;5.40;99.90;;;;;;5075551;28;20198;-71
2021/05/14 01:05:51;;;;;;;0.73;0.73;;;5.40;99.90;;;;;;5074190;28;20205;-76
2021/05/14 01:08:17;;;;;;;1.03;0.90;;;5.40;99.90;;;;;;5075735;28;20947;-76
2021/05/14 01:10:43;;;;;;;0.63;0.63;;;5.40;99.90;;;;;;5075517;28;20262;-72
2021/05/14 01:13:09;;;;;;;1.10;1.07;;;5.30;99.90;;;;;;5075301;28;20192;-73
2021/05/14 01:15:34;;;;;;;0.80;0.80;;;5.40;99.90;;;;;;5075238;28;20885;-76
2021/05/14 01:18:00;;;;;;;1.10;0.97;;;5.40;99.90;;;;;;5075405;28;20189;-71
2021/05/14 01:20:29;;;;;;;0.80;0.70;;;5.40;99.90;;;;;;5075513;28;20162;-74
2021/05/14 01:22:55;;;;;;;0.75;0.75;;;5.40;99.90;;;;;;5075250;28;20189;-73
2021/05/14 01:25:21;;;;;;;0.77;0.77;;;5.40;99.90;;;;;;5075148;28;20169;-75
2021/05/14 01:27:46;;;;;;;0.60;0.60;;;5.00;99.90;;;;;;5075251;28;20230;-74
2021/05/14 01:30:13;;;;;;;0.63;0.60;;;4.90;99.90;;;;;;5075550;28;20634;-73
2021/05/14 01:32:38;;;;;;;0.95;0.88;;;4.90;99.90;;;;;;5073719;28;20227;-72
2021/05/14 01:35:05;;;;;;;0.60;0.60;;;5.20;99.90;;;;;;5075063;28;20192;-73
2021/05/14 01:37:30;;;;;;;0.75;0.73;;;5.20;99.90;;;;;;5075078;28;20244;-73
2021/05/14 01:39:56;;;;;;;0.70;0.70;;;5.30;99.90;;;;;;5075089;28;20201;-71
2021/05/14 01:42:21;;;;;;;0.60;0.60;;;5.30;99.90;;;;;;5075014;28;20227;-71
2021/05/14 01:44:47;;;;;;;0.70;0.70;;;5.40;99.90;;;;;;5075021;28;20170;-73
2021/05/14 01:47:17;;;;;;;0.87;0.87;;;5.30;99.90;;;;;;5074692;28;20216;-74
2021/05/14 01:49:43;;;;;;;0.85;0.70;;;5.20;99.90;;;;;;5074930;28;20189;-74
2021/05/14 01:52:09;;;;;;;0.80;0.80;;;5.30;99.90;;;;;;5074607;28;20236;-74
2021/05/14 01:54:34;;;;;;;0.53;0.53;;;5.20;99.90;;;;;;5074589;28;20465;-70
2021/05/14 01:57:00;;;;;;;0.77;0.77;;;5.20;99.90;;;;;;5074377;28;20162;-73
2021/05/14 01:59:26;;;;;;;0.83;0.80;;;5.30;99.90;;;;;;5074532;28;20161;-73
2021/05/14 02:01:51;;;;;;;3.10;1.10;;;5.40;99.90;;;;;;5074439;28;20692;-73
2021/05/14 02:04:17;;;;;;;0.67;0.67;;;5.30;99.90;;;;;;5074706;28;20283;-72
2021/05/14 02:06:42;;;;;;;0.93;0.67;;;5.20;99.90;;;;;;5074205;28;20169;-73
2021/05/14 02:09:08;;;;;;;0.80;0.57;;;5.00;99.90;;;;;;5074379;28;20181;-72
2021/05/14 02:11:34;;;;;;;0.73;0.73;;;5.00;99.90;;;;;;5074341;28;20194;-75
2021/05/14 02:14:00;;;;;;;1.03;0.73;;;5.20;99.90;;;;;;5074474;28;20162;-71
2021/05/14 02:16:26;;;;;;;0.63;0.63;;;5.40;99.90;;;;;;5074134;28;20198;-75
2021/05/14 02:18:53;;;;;;;1.05;0.80;;;5.60;99.90;;;;;;5074263;28;20181;-75
2021/05/14 02:21:18;;;;;;;0.60;0.60;;;5.70;99.90;;;;;;5074336;28;20171;-72
2021/05/14 02:23:44;;;;;;;0.60;0.60;;;5.80;99.90;;;;;;5074133;28;20198;-74
2021/05/14 02:26:10;;;;;;;0.67;0.67;;;5.80;99.90;;;;;;5073930;28;20408;-74
2021/05/14 02:28:36;;;;;;;1.23;0.70;;;5.80;99.90;;;;;;5074390;28;20482;-71
2021/05/14 02:31:03;;;;;;;0.93;0.93;;;5.70;99.90;;;;;;5074081;28;20254;-75
2021/05/14 02:33:29;;;;;;;0.60;0.60;;;5.80;99.90;;;;;;5073856;28;20234;-72
2021/05/14 02:35:55;;;;;;;0.75;0.75;;;6.00;99.90;;;;;;5073798;28;20174;-75
2021/05/14 02:38:20;;;;;;;0.70;0.70;;;6.20;99.90;;;;;;5073994;28;20170;-74
2021/05/14 02:40:46;;;;;;;0.90;0.80;;;6.30;99.90;;;;;;5073877;28;20225;-71
2021/05/14 02:43:12;;;;;;;0.50;0.50;;;6.40;99.90;;;;;;5073666;28;20246;-73
2021/05/14 02:45:38;;;;;;;2.27;0.63;;;6.10;99.90;;;;;;5073512;28;20583;-72
2021/05/14 02:48:05;;;;;;;0.88;0.70;;;5.80;99.90;;;;;;5073774;28;20174;-74
2021/05/14 02:50:31;;;;;;;0.65;0.65;;;5.80;99.90;;;;;;5073600;28;20182;-72
2021/05/14 02:52:57;;;;;;;0.63;0.50;;;5.70;99.90;;;;;;5073712;28;20196;-72
2021/05/14 02:55:23;;;;;;;0.53;0.53;;;5.70;99.90;;;;;;5073655;28;20249;-72
2021/05/14 02:57:51;;;;;;;0.63;0.63;;;5.40;99.90;;;;;;5073523;28;20174;-73
2021/05/14 03:00:17;;;;;;;1.75;0.60;;;5.30;99.90;;;;;;5073522;28;20176;-75
2021/05/14 03:02:43;;;;;;;1.65;0.73;;;5.10;99.90;;;;;;5073438;28;20611;-70
2021/05/14 03:05:10;;;;;;;0.57;0.53;;;5.10;99.90;;;;;;5073261;28;20252;-72
2021/05/14 03:07:35;;;;;;;0.50;0.50;;;5.10;99.90;;;;;;5073581;28;20546;-73
2021/05/14 03:10:01;;;;;;;0.70;0.70;;;5.00;99.90;;;;;;5073204;28;20189;-74
2021/05/14 03:12:27;;;;;;;0.70;0.60;;;5.10;99.90;;;;;;5073136;28;20205;-73
2021/05/14 03:14:53;;;;;;;0.50;0.50;;;5.10;99.90;;;;;;5073433;28;20577;-71
2021/05/14 03:17:19;;;;;;;2.35;0.55;;;5.20;99.90;;;;;;5073090;28;20884;-75
2021/05/14 03:19:44;;;;;;;1.63;0.70;;;5.30;99.90;;;;;;5073367;28;20169;-72
2021/05/14 03:22:10;;;;;;;0.70;0.70;;;5.30;99.90;;;;;;5073346;28;20681;-71
2021/05/14 03:24:36;;;;;;;0.73;0.73;;;5.40;99.90;;;;;;5073192;28;20182;-72
2021/05/14 03:27:01;;;;;;;0.70;0.70;;;5.50;99.90;;;;;;5073084;28;20603;-71
2021/05/14 03:29:27;;;;;;;0.70;0.70;;;5.40;99.90;;;;;;5073240;28;20174;-74
2021/05/14 03:31:53;;;;;;;0.73;0.57;;;5.30;99.90;;;;;;5073105;28;20331;-73
2021/05/14 03:34:18;;;;;;;0.80;0.60;;;5.30;99.90;;;;;;5073209;28;20173;-74
2021/05/14 03:36:44;;;;;;;0.80;0.80;;;5.30;99.90;;;;;;5072863;28;20170;-74
2021/05/14 03:39:10;;;;;;;0.50;0.50;;;5.10;99.90;;;;;;5073068;28;20184;-73
2021/05/14 03:41:50;;;;;;;0.50;0.50;;;5.00;99.90;;;;;;5073055;28;20165;-73
2021/05/14 03:44:16;;;;;;;1.35;0.75;;;5.10;99.90;;;;;;5073322;28;20387;-74
2021/05/14 03:46:42;;;;;;;1.73;0.40;;;5.10;99.90;;;;;;5073006;28;20170;-72
2021/05/14 03:49:08;;;;;;;0.50;0.50;;;5.20;99.90;;;;;;5073102;28;20177;-72
2021/05/14 03:51:37;;;;;;;0.60;0.60;;;5.20;99.90;;;;;;5072968;28;20444;-73
2021/05/14 03:54:04;;;;;;;0.50;0.50;;;5.20;99.90;;;;;;5073181;28;20556;-76
2021/05/14 03:56:29;;;;;;;1.38;0.52;;;5.30;99.90;;;;;;5072925;28;20175;-73
2021/05/14 03:58:55;;;;;;;0.90;0.80;;;5.30;99.90;;;;;;5072941;28;20698;-72
2021/05/14 04:01:21;;;;;;;0.73;0.73;;;5.30;99.90;;;;;;5073140;28;20177;-75
2021/05/14 04:03:49;;;;;;;0.50;0.50;;;5.30;99.90;;;;;;5072751;28;20655;-71
2021/05/14 04:06:14;;;;;;;0.95;0.93;;;5.30;99.90;;;;;;5072927;28;20457;-76
2021/05/14 04:08:40;;;;;;;0.60;0.60;;;5.30;99.90;;;;;;5072728;28;20643;-74
2021/05/14 04:16:16;;;;;;;0.95;0.80;;;5.40;99.90;;;;;;5072694;28;20181;-72
2021/05/14 04:18:42;;;;;;;0.40;0.40;;;5.20;99.90;;;;;;5072880;28;20209;-74
2021/05/14 04:21:07;;;;;;;0.50;0.50;;;5.00;99.90;;;;;;5072921;28;20657;-72
2021/05/14 04:23:33;;;;;;;0.70;0.70;;;5.20;99.90;;;;;;5072644;28;20193;-73
2021/05/14 04:25:59;;;;;;;0.50;0.50;;;5.10;99.90;;;;;;5072536;28;20197;-74
2021/05/14 04:28:25;;;;;;;0.50;0.50;;;5.00;99.90;;;;;;5072792;28;20227;-74
2021/05/14 04:30:51;;;;;;;0.50;0.50;;;5.30;99.90;;;;;;5074669;28;20504;-72
2021/05/14 04:33:16;;;;;;;0.77;0.77;;;5.40;99.90;;;;;;5076063;28;20272;-74
2021/05/14 04:35:42;;;;;;;0.70;0.70;;;5.40;99.90;;;;;;5076030;28;20571;-73
2021/05/14 04:38:07;;;;;;;0.50;0.50;;;5.60;99.90;;;;;;5076360;28;20267;-74
2021/05/14 04:40:33;;;;;;;0.83;0.80;;;5.60;99.90;;;;;;5076179;28;20164;-72
2021/05/14 04:43:03;;;;;;;3.00;0.70;;;5.70;99.90;;;;;;5075887;28;20544;-70
2021/05/14 04:45:30;;;;;;;1.83;1.73;;;5.80;99.90;;;;;;5075757;28;20197;-72
2021/05/14 04:47:56;;;;;;;0.70;0.70;;;5.90;99.90;;;;;;5075928;28;20185;-71
2021/05/14 04:50:22;;;;;;;0.50;0.50;;;6.60;99.90;;;;;;5076036;28;20159;-75
2021/05/14 04:52:48;;;;;;;0.60;0.60;;;7.90;99.90;;;;;;5075941;28;20545;-72
2021/05/14 04:55:15;;;;;;;0.53;0.53;;;9.40;98.70;;;;;;5075723;28;20810;-74
2021/05/14 04:57:41;;;;;;;0.90;0.90;;;10.80;94.40;;;;;;5075886;28;20169;-72
2021/05/14 05:00:08;;;;;;;0.70;0.60;;;11.90;92.60;;;;;;5076354;28;20175;-73
2021/05/14 05:02:35;;;;;;;0.50;0.50;;;12.80;90.00;;;;;;5075647;28;20194;-76
2021/05/14 05:05:01;;;;;;;0.70;0.70;;;13.60;85.80;;;;;;5075596;28;20436;-71
2021/05/14 05:07:30;;;;;;;0.63;0.63;;;14.30;81.00;;;;;;5075527;28;20418;-73
2021/05/14 05:09:55;;;;;;;2.30;0.97;;;14.80;78.30;;;;;;5075381;28;20424;-74
2021/05/14 05:12:21;;;;;;;1.10;1.00;;;15.00;75.20;;;;;;5075509;28;20460;-74
2021/05/14 05:14:47;;;;;;;1.17;1.07;;;14.90;73.90;;;;;;5075435;28;20535;-72
2021/05/14 05:17:13;;;;;;;0.73;0.73;;;15.10;73.90;;;;;;5075258;28;20168;-75
2021/05/14 05:19:39;;;;;;;1.20;1.10;;;15.50;72.70;;;;;;5075388;28;20396;-75
2021/05/14 05:22:04;;;;;;;1.00;0.80;;;16.00;72.00;;;;;;5075298;28;20242;-74
2021/05/14 05:24:30;;;;;;;1.10;1.00;;;16.60;68.50;;;;;;5075325;28;20166;-76
2021/05/14 05:26:55;;;;;;;0.70;0.60;;;17.40;67.40;;;;;;5075021;28;20311;-75
2021/05/14 05:29:21;;;;;;;0.80;0.60;;;18.30;61.90;;;;;;5075309;28;20172;-74
2021/05/14 05:31:47;;;;;;;0.70;0.50;;;18.80;59.00;;;;;;5075587;28;20208;-71
2021/05/14 05:34:13;;;;;;;1.13;0.90;;;19.20;57.20;;;;;;5075084;28;20158;-72
2021/05/14 05:36:38;;;;;;;0.50;0.50;;;19.60;56.20;;;;;;5075102;28;20869;-72
2021/05/14 05:39:05;;;;;;;1.53;0.63;;;20.30;54.70;;;;;;5075104;28;20183;-76
2021/05/14 05:41:30;;;;;;;1.07;0.87;;;21.00;53.10;;;;;;5074684;28;20172;-74
2021/05/14 05:43:56;;;;;;;0.70;0.60;;;21.90;51.80;;;;;;5074726;28;20399;-76
2021/05/14 05:46:22;;;;;;;1.47;0.93;;;22.50;49.30;;;;;;5074623;28;20165;-74
2021/05/14 05:48:49;;;;;;;3.80;2.27;;;23.20;49.40;;;;;;5075146;28;20667;-75
2021/05/14 05:51:15;;;;;;;6.43;3.63;;;23.70;46.30;;;;;;5074612;28;20193;-76
2021/05/14 05:53:43;;;;;;;2.80;2.47;;;24.20;44.30;;;;;;5074455;28;20471;-74
2021/05/14 05:56:09;;;;;;;2.30;1.50;;;24.70;43.80;;;;;;5074535;28;20812;-71
2021/05/14 05:58:35;;;;;;;1.40;1.30;;;25.20;43.50;;;;;;5073462;28;20775;-73
2021/05/14 06:01:01;;;;;;;1.60;1.00;;;25.80;42.30;;;;;;5074739;28;20462;-74
2021/05/14 06:03:29;;;;;;;5.30;1.37;;;26.50;41.30;;;;;;5074574;28;20447;-74
2021/05/14 06:05:56;;;;;;;0.97;0.93;;;26.90;38.90;;;;;;5075183;28;20408;-76
2021/05/14 06:08:24;;;;;;;0.50;0.40;;;27.30;37.60;;;;;;5074652;28;20418;-76
2021/05/14 06:10:52;;;;;;;1.00;0.67;;;27.40;38.00;;;;;;5074339;28;20462;-75
2021/05/14 06:13:18;;;;;;;0.90;0.60;;;27.30;38.60;;;;;;5074310;28;20842;-74
2021/05/14 06:15:44;;;;;;;0.90;0.90;;;27.70;37.80;;;;;;5074271;28;20400;-75
2021/05/14 06:18:15;;;;;;;0.70;0.50;;;28.40;37.70;;;;;;5074392;28;20450;-76
2021/05/14 06:20:43;;;;;;;0.50;0.50;;;28.90;36.30;;;;;;5073974;28;20161;-75
2021/05/14 06:23:11;;;;;;;0.70;0.70;;;29.30;35.30;;;;;;5073972;28;20469;-75
2021/05/14 06:25:37;;;;;;;0.70;0.63;;;29.90;35.10;;;;;;5073803;28;20821;-76
2021/05/14 06:28:03;;;;;;;0.90;0.80;;;30.30;35.10;;;;;;5074182;28;20763;-73
2021/05/14 06:30:29;;;;;;;0.90;0.70;;;30.80;33.90;;;;;;5073861;28;20419;-72
2021/05/14 06:32:55;;;;;;;0.50;0.47;;;31.10;33.70;;;;;;5073817;28;20428;-74
2021/05/14 06:35:21;;;;;;;0.50;0.40;;;31.40;33.60;;;;;;5073832;28;20197;-73
2021/05/14 06:37:47;;;;;;;0.60;0.50;;;31.20;32.50;;;;;;5073857;28;20644;-74
2021/05/14 06:40:13;;;;;;;0.60;0.50;;;31.40;32.80;;;;;;5072575;28;20418;-75
2021/05/14 06:42:39;;;;;;;0.73;0.40;;;31.70;32.80;;;;;;5073749;28;20193;-72
2021/05/14 06:45:06;;;;;;;0.40;0.40;;;32.30;31.80;;;;;;5073919;28;20762;-75
2021/05/14 06:47:32;;;;;;;1.43;0.50;;;32.90;31.10;;;;;;5072436;28;20180;-75
2021/05/14 06:50:02;;;;;;;0.40;0.40;;;32.20;30.70;;;;;;5073727;28;20764;-75
2021/05/14 06:52:29;;;;;;;1.73;0.50;;;31.50;31.00;;;;;;5072784;28;20546;-74
2021/05/14 06:54:55;;;;;;;0.40;0.40;;;31.90;30.70;;;;;;5073460;28;20434;-75
2021/05/14 06:57:21;;;;;;;0.50;0.50;;;31.30;30.50;;;;;;5072063;28;20905;-71
2021/05/14 06:59:47;;;;;;;0.73;0.73;;;31.00;30.80;;;;;;5073493;28;20180;-75
2021/05/14 07:02:12;;;;;;;1.00;0.90;;;30.30;31.30;;;;;;5073341;28;20270;-76
2021/05/14 07:04:38;;;;;;;1.00;0.80;;;29.20;33.50;;;;;;5073407;28;20692;-74
2021/05/14 07:07:04;;;;;;;0.87;0.70;;;30.00;32.70;;;;;;5073389;28;20223;-76
2021/05/14 07:09:29;;;;;;;0.60;0.53;;;30.20;33.40;;;;;;5073161;28;20199;-74
2021/05/14 07:11:57;;;;;;;2.03;1.37;;;30.90;31.00;;;;;;5072957;28;20228;-74
2021/05/14 07:14:23;;;;;;;0.67;0.67;;;31.80;30.20;;;;;;5073273;28;20403;-74
2021/05/14 07:16:50;;;;;;;3.70;0.60;;;31.90;29.80;;;;;;5073199;28;20411;-74
2021/05/14 07:19:16;;;;;;;1.93;1.10;;;31.70;29.10;;;;;;5073554;28;20165;-75
2021/05/14 07:21:42;;;;;;;1.30;1.20;;;31.90;28.70;;;;;;5073009;28;20495;-71
2021/05/14 07:24:09;;;;;;;1.90;1.37;;;31.60;29.00;;;;;;5071714;28;20889;-74
2021/05/14 07:26:35;;;;;;;4.07;1.23;;;32.30;29.50;;;;;;5072521;28;20433;-73
2021/05/14 07:29:02;;;;;;;1.30;0.73;;;33.60;27.70;;;;;;5071859;28;20403;-72
2021/05/14 07:31:29;;;;;;;0.43;0.43;;;34.50;26.80;;;;;;5073198;28;20490;-75
2021/05/14 07:33:54;;;;;;;5.00;1.10;;;34.80;25.90;;;;;;5073045;28;20503;-72
2021/05/14 07:36:20;;;;;;;0.77;0.50;;;34.10;25.70;;;;;;5072912;28;20969;-76
2021/05/14 07:38:46;;;;;;;1.90;0.53;;;32.10;27.00;;;;;;5073339;28;20549;-74
2021/05/14 07:41:12;;;;;;;1.47;0.60;;;29.20;28.40;;;;;;5073338;28;20252;-73
2021/05/14 07:43:37;;;;;;;1.30;0.47;;;27.70;30.20;;;;;;5073497;28;20428;-72
2021/05/14 07:46:04;;;;;;;0.97;0.60;;;26.50;31.80;;;;;;5072884;28;20174;-72
2021/05/14 07:48:30;;;;;;;0.63;0.63;;;26.20;31.80;;;;;;5073179;28;20173;-73
2021/05/14 07:50:55;;;;;;;1.07;0.77;;;27.00;32.60;;;;;;5072870;28;20454;-73
2021/05/14 07:53:21;;;;;;;1.00;0.90;;;28.60;29.90;;;;;;5072961;28;20432;-71
2021/05/14 07:55:47;;;;;;;1.30;0.53;;;30.10;28.10;;;;;;5072807;28;20174;-72
2021/05/14 07:58:12;;;;;;;0.80;0.50;;;30.60;27.60;;;;;;5073164;28;20248;-73
2021/05/14 08:00:41;;;;;;;1.23;0.57;;;29.70;27.40;;;;;;5073015;28;20657;-74
2021/05/14 08:03:07;;;;;;;1.43;0.50;;;28.80;26.90;;;;;;5072255;28;20214;-74
2021/05/14 08:05:33;;;;;;;1.53;0.50;;;28.70;28.60;;;;;;5076017;28;20414;-75
2021/05/14 08:08:11;;;;;;;4.93;0.47;;;30.00;27.80;;;;;;5076091;28;20403;-74
2021/05/14 08:10:37;;;;;;;0.50;0.47;;;30.30;27.80;;;;;;5076713;28;20181;-73
2021/05/14 08:13:03;;;;;;;3.50;0.60;;;30.70;27.10;;;;;;5076152;28;20873;-75
2021/05/14 08:15:30;;;;;;;0.50;0.40;;;29.20;28.70;;;;;;5076860;28;20201;-79
2021/05/14 08:17:56;;;;;;;0.50;0.50;;;26.10;31.50;;;;;;5077198;28;20889;-76
2021/05/14 08:20:22;;;;;;;1.40;0.73;;;25.10;33.80;;;;;;5076522;28;20437;-79
2021/05/14 08:22:48;;;;;;;1.53;0.50;;;24.80;33.40;;;;;;5076422;28;20284;-78
2021/05/14 08:25:14;;;;;;;0.40;0.40;;;24.20;35.60;;;;;;5076487;28;20491;-78
2021/05/14 08:27:41;;;;;;;1.53;0.70;;;26.40;33.70;;;;;;5076333;28;20408;-76
2021/05/14 08:30:07;;;;;;;0.70;0.63;;;27.00;31.10;;;;;;5076802;28;20758;-74
2021/05/14 08:32:33;;;;;;;2.40;2.20;;;26.10;32.80;;;;;;5076784;28;20878;-73
2021/05/14 08:34:59;;;;;;;1.03;0.73;;;26.20;33.10;;;;;;5076675;28;20447;-74
2021/05/14 08:37:24;;;;;;;0.80;0.63;;;26.60;32.90;;;;;;5076250;28;20166;-71
2021/05/14 08:39:50;;;;;;;0.57;0.50;;;27.20;32.10;;;;;;5076403;28;20170;-71
2021/05/14 08:42:16;;;;;;;1.17;0.80;;;27.10;30.50;;;;;;5075979;28;20193;-74
2021/05/14 08:44:43;;;;;;;0.63;0.60;;;25.80;30.60;;;;;;5075980;28;20174;-77
2021/05/14 08:47:11;;;;;;;1.50;1.33;;;24.60;32.70;;;;;;5075904;28;20177;-77
2021/05/14 08:49:38;;;;;;;1.37;0.73;;;23.90;34.00;;;;;;5075959;28;20431;-79
2021/05/14 08:52:07;;;;;;;1.00;0.63;;;23.70;33.30;;;;;;5076165;28;20849;-77
2021/05/14 08:54:34;;;;;;;0.57;0.40;;;24.40;34.40;;;;;;5075951;28;20423;-74
2021/05/14 08:57:00;;;;;;;0.40;0.40;;;25.60;34.50;;;;;;5074852;28;20416;-74
2021/05/14 08:59:26;;;;;;;2.20;0.40;;;26.80;33.20;;;;;;5076187;28;20414;-74
2021/05/14 09:01:51;;;;;;;0.93;0.70;;;27.70;30.20;;;;;;5075994;28;20174;-73
2021/05/14 09:04:19;;;;;;;0.40;0.40;;;28.50;30.80;;;;;;5075543;28;20204;-74
2021/05/14 09:06:46;;;;;;;0.80;0.60;;;28.40;29.50;;;;;;5075157;28;20482;-73
2021/05/14 09:09:13;;;;;;;0.97;0.50;;;25.90;32.00;;;;;;5075070;28;20419;-74
2021/05/14 09:11:44;;;;;;;0.50;0.40;;;24.40;33.60;;;;;;5075469;28;20524;-73
2021/05/14 09:14:30;;;;;;;1.00;0.50;;;23.20;35.70;;;;;;5075492;28;20431;-72
2021/05/14 09:16:56;;;;;;;3.03;0.60;;;22.00;37.20;;;;;;5074624;28;20379;-72
2021/05/14 09:19:32;;;;;;;1.47;0.53;;;20.40;38.60;;;;;;5075307;28;20390;-74
2021/05/14 09:22:20;;;;;;;1.37;0.57;;;19.00;40.70;;;;;;5075334;28;20277;-74
2021/05/14 09:24:48;;;;;;;0.83;0.60;;;18.50;42.10;;;;;;5075485;28;20969;-74
2021/05/14 09:27:25;;;;;;;0.50;0.50;;;17.90;43.80;;;;;;5075123;28;20779;-73
2021/05/14 09:29:51;;;;;;;0.70;0.70;;;17.80;44.50;;;;;;5075025;28;20772;-72
2021/05/14 09:32:22;;;;;;;0.63;0.43;;;17.70;44.90;;;;;;5074946;28;20552;-73
2021/05/14 09:34:49;;;;;;;1.37;0.67;;;19.50;42.40;;;;;;5075238;28;20186;-73
2021/05/14 09:37:16;;;;;;;5.13;3.70;;;20.20;41.10;;;;;;5074900;28;20460;-72
2021/05/14 09:39:43;;;;;;;2.17;1.33;;;20.00;41.80;;;;;;5074935;28;20487;-72
2021/05/14 09:42:09;;;;;;;0.50;0.50;;;19.50;41.30;;;;;;5075003;28;20478;-72
2021/05/14 09:44:35;;;;;;;1.13;0.60;;;19.10;42.00;;;;;;5074982;28;20404;-74
2021/05/14 09:47:01;;;;;;;0.93;0.50;;;18.60;43.40;;;;;;5074598;28;20415;-72
2021/05/14 09:49:30;;;;;;;0.60;0.53;;;18.00;44.10;;;;;;5074939;28;20177;-72
2021/05/14 09:52:05;;;;;;;0.73;0.60;;;17.40;45.10;;;;;;5074732;28;20254;-72
2021/05/14 09:54:35;;;;;;;1.70;0.90;;;16.90;46.70;;;;;;5074715;28;20452;-73
2021/05/14 09:57:35;;;;;;;0.60;0.50;;;16.60;47.70;;;;;;5074521;28;20414;-74
2021/05/14 10:00:12;;;;;;;2.83;0.83;;;16.20;46.80;;;;;;5074731;28;20407;-75
2021/05/14 10:02:40;;;;;;;0.50;0.50;;;15.90;48.20;;;;;;5074630;28;20424;-71
2021/05/14 10:05:12;;;;;;;0.60;0.53;;;16.40;48.50;;;;;;5074442;28;20474;-73
2021/05/14 10:07:40;;;;;;;0.70;0.57;;;16.80;49.30;;;;;;5074644;28;20913;-73
2021/05/14 10:10:08;;;;;;;1.00;0.60;;;16.50;49.80;;;;;;5074218;28;20522;-73
2021/05/14 10:12:35;;;;;;;0.50;0.50;;;16.30;50.20;;;;;;5074249;28;20455;-74
2021/05/14 10:15:03;;;;;;;1.27;0.73;;;16.30;49.90;;;;;;5074404;28;20408;-71
2021/05/14 10:17:28;;;;;;;0.70;0.60;;;16.10;51.90;;;;;;5074570;28;20423;-73
2021/05/14 10:19:56;;;;;;;1.20;0.70;;;16.00;51.70;;;;;;5074186;28;20889;-73
2021/05/14 10:22:29;;;;;;;0.97;0.87;;;15.60;51.40;;;;;;5074130;28;20940;-74
2021/05/14 10:24:59;;;;;;;0.80;0.70;;;15.20;51.00;;;;;;5074092;28;20412;-74
2021/05/14 10:27:29;;;;;;;1.33;0.60;;;15.00;51.80;;;;;;5073139;28;20509;-75
2021/05/14 10:30:00;;;;;;;0.50;0.47;;;14.80;52.60;;;;;;5074151;28;20881;-71
2021/05/14 10:32:47;;;;;;;0.80;0.60;;;15.30;53.30;;;;;;5074023;28;20465;-71
2021/05/14 10:35:24;;;;;;;0.50;0.50;;;15.40;51.30;;;;;;5073665;28;20407;-74
2021/05/14 10:38:04;;;;;;;0.93;0.60;;;15.30;50.80;;;;;;5073994;28;20399;-74
2021/05/14 10:40:30;;;;;;;1.63;0.97;;;15.10;50.70;;;;;;5073866;28;20400;-72
2021/05/14 10:43:19;;;;;;;1.53;1.00;;;15.30;51.50;;;;;;5073670;28;20426;-74
2021/05/14 10:45:59;;;;;;;1.00;0.70;;;15.50;51.10;;;;;;5073585;28;20460;-74
2021/05/14 10:48:26;;;;;;;5.10;3.90;;;15.60;51.00;;;;;;5072866;28;20904;-74
2021/05/14 10:51:01;;;;;;;6.00;4.50;;;15.60;50.80;;;;;;5073671;28;20412;-73
2021/05/14 10:53:36;;;;;;;6.13;4.23;;;15.40;52.30;;;;;;5073601;28;20419;-73
2021/05/14 10:56:10;;;;;;;1.50;1.40;;;15.60;54.30;;;;;;5073513;28;20411;-73
2021/05/14 10:59:00;;;;;;;2.33;1.17;;;15.40;52.00;;;;;;5073600;28;20400;-73
2021/05/14 11:01:35;;;;;;;0.87;0.83;;;15.90;50.40;;;;;;5073672;28;20748;-75
2021/05/14 11:04:12;;;;;;;1.77;1.67;;;16.20;48.60;;;;;;5073492;28;20423;-72
2021/05/14 11:06:43;;;;;;;1.70;1.60;;;16.60;48.20;;;;;;5073220;28;20418;-74
2021/05/14 11:09:10;;;;;;;0.90;0.80;;;16.80;49.70;;;;;;5071937;28;20435;-74
2021/05/14 11:12:03;;;;;;;4.70;0.80;;;17.10;47.40;;;;;;5073476;28;20447;-74
2021/05/14 11:14:48;;;;;;;1.40;1.30;;;17.10;46.10;;;;;;5073283;28;20458;-72
2021/05/14 11:17:18;;;;;;;3.80;1.20;;;17.30;46.20;;;;;;5073019;28;20411;-73
2021/05/14 11:19:52;;;;;;;1.80;1.10;;;17.60;45.90;;;;;;5073477;28;20533;-73
2021/05/14 11:22:27;;;;;;;5.03;1.00;;;17.90;43.50;;;;;;5073039;28;20436;-73
2021/05/14 11:25:13;;;;;;;3.20;0.80;;;17.80;44.40;;;;;;5073219;28;20437;-72
2021/05/14 11:27:38;;;;;;;0.90;0.80;;;18.00;43.60;;;;;;5073313;28;20446;-72
2021/05/14 11:30:07;;;;;;;1.97;1.27;;;18.00;40.80;;;;;;5073248;28;20431;-72
2021/05/14 11:32:37;;;;;;;1.17;1.00;;;17.70;40.20;;;;;;5072892;28;20201;-72
2021/05/14 11:35:13;;;;;;;1.43;0.90;;;17.50;42.00;;;;;;5073021;28;20411;-71
2021/05/14 11:37:50;;;;;;;0.60;0.60;;;17.40;42.70;;;;;;5073396;28;20400;-72
2021/05/14 11:40:31;;;;;;;0.90;0.70;;;17.40;42.90;;;;;;5075992;28;20411;-71
2021/05/14 11:42:59;;;;;;;1.27;0.70;;;16.90;43.90;;;;;;5077332;28;20428;-71
2021/05/14 11:45:33;;;;;;;0.87;0.80;;;16.70;44.60;;;;;;5077197;28;20416;-74
2021/05/14 11:48:01;;;;;;;0.87;0.80;;;16.40;44.40;;;;;;5077381;28;20428;-74
2021/05/14 11:50:28;;;;;;;1.07;0.50;;;16.40;45.40;;;;;;5077200;28;20828;-71
2021/05/14 11:52:55;;;;;;;0.80;0.73;;;16.80;44.50;;;;;;5076816;28;20516;-72
2021/05/14 11:55:21;;;;;;;0.77;0.77;;;17.00;45.70;;;;;;5076763;28;20804;-75
2021/05/14 11:57:49;;;;;;;1.00;0.80;;;17.40;43.70;;;;;;5075655;28;20477;-73
2021/05/14 12:00:15;;;;;;;0.60;0.60;;;17.40;42.90;;;;;;5076947;28;20422;-71
2021/05/14 12:02:46;;;;;;;0.73;0.70;;;17.50;42.00;;;;;;5077308;28;20435;-73
2021/05/14 12:05:14;;;;;;;0.60;0.60;;;17.90;42.70;;;;;;5076523;28;20396;-73
2021/05/14 12:07:42;;;;;;;0.83;0.70;;;18.00;41.50;;;;;;5076592;28;20396;-72
2021/05/14 12:10:13;;;;;;;0.60;0.60;;;17.80;39.30;;;;;;5076604;28;20429;-72
2021/05/14 12:12:40;;;;;;;1.00;0.60;;;17.50;38.00;;;;;;5076601;28;20551;-75
2021/05/14 12:15:10;;;;;;;1.23;0.93;;;17.30;40.10;;;;;;5076357;28;20438;-74
2021/05/14 12:17:36;;;;;;;1.37;0.80;;;17.30;39.80;;;;;;5076604;28;20399;-73
2021/05/14 12:20:26;;;;;;;3.47;0.67;;;16.90;40.60;;;;;;5076474;28;20422;-74
2021/05/14 12:22:55;;;;;;;1.47;0.60;;;16.90;42.70;;;;;;5076485;28;20441;-75
2021/05/14 12:25:21;;;;;;;0.80;0.57;;;17.00;43.00;;;;;;5076197;28;20411;-75
2021/05/14 12:27:47;;;;;;;1.23;0.60;;;17.10;42.00;;;;;;5076459;28;20403;-71
2021/05/14 12:30:15;;;;;;;1.03;0.87;;;16.80;42.50;;;;;;5076403;28;20410;-74
2021/05/14 12:32:42;;;;;;;3.13;0.60;;;17.00;42.60;;;;;;5075987;28;20888;-73
2021/05/14 12:35:08;;;;;;;6.93;0.90;;;17.20;43.10;;;;;;5076198;28;20403;-74
2021/05/14 12:37:34;;;;;;;1.80;1.17;;;17.30;43.00;;;;;;5076112;28;20396;-71
2021/05/14 12:40:00;;;;;;;0.50;0.50;;;16.90;43.30;;;;;;5076224;28;20404;-74
2021/05/14 12:42:30;;;;;;;1.50;0.70;;;16.70;41.60;;;;;;5074847;28;20786;-74
2021/05/14 12:44:59;;;;;;;1.20;0.70;;;16.90;42.30;;;;;;5075760;28;20540;-74
2021/05/14 12:47:29;;;;;;;1.00;0.60;;;17.00;43.30;;;;;;5075884;28;20411;-74
2021/05/14 12:49:59;;;;;;;1.10;0.80;;;17.00;42.30;;;;;;5075790;28;20481;-73
2021/05/14 12:52:28;;;;;;;2.30;1.07;;;16.70;42.80;;;;;;5075020;28;20884;-72
2021/05/14 12:54:57;;;;;;;1.17;0.60;;;16.30;43.30;;;;;;5075804;28;20407;-72
2021/05/14 12:57:34;;;;;;;1.80;1.03;;;15.90;45.00;;;;;;5075758;28;20399;-72